Time;durP1;ratioP1;P1;durP2;ratioP2;P2;SDS_P1;SDS_P2;PMS_P1;PMS_P2;Temp;Humidity;BMP_temperature;BMP_pressure;BME280_temperature;BME280_humidity;BME280_pressure;Samples;Min_cycle;Max_cycle;Signal;HPM_P1;HPM_P2
2023/01/13 00:00:56;;;;;;;22.90;4.00;;;8.40;99.90;;;;;;5008095;28;19920;-71
2023/01/13 00:03:21;;;;;;;25.25;3.72;;;8.30;99.90;;;;;;5007926;28;20121;-71
2023/01/13 00:05:47;;;;;;;28.10;3.35;;;8.20;99.90;;;;;;5007683;28;20034;-71
2023/01/13 00:08:12;;;;;;;23.15;2.47;;;8.20;99.90;;;;;;5008854;28;20046;-71
2023/01/13 00:10:38;;;;;;;18.70;3.08;;;8.10;99.90;;;;;;5008717;28;20033;-71
2023/01/13 00:13:04;;;;;;;25.60;4.03;;;8.10;99.90;;;;;;5007388;28;20038;-71
2023/01/13 00:15:30;;;;;;;19.85;4.47;;;8.10;99.90;;;;;;5009035;28;20482;-71
2023/01/13 00:17:56;;;;;;;30.88;2.78;;;8.00;99.90;;;;;;5022245;28;20585;-71
2023/01/13 00:20:21;;;;;;;22.55;2.58;;;8.00;99.90;;;;;;5006166;28;20052;-71
2023/01/13 00:22:47;;;;;;;26.42;3.83;;;8.00;99.90;;;;;;5008225;28;20445;-71
2023/01/13 00:25:12;;;;;;;21.77;2.85;;;8.00;99.90;;;;;;5007929;28;20487;-71
2023/01/13 00:27:38;;;;;;;20.83;3.53;;;8.00;99.90;;;;;;5009815;28;20065;-71
2023/01/13 00:30:06;;;;;;;16.50;2.88;;;8.00;99.90;;;;;;5008260;28;20605;-71
2023/01/13 00:32:32;;;;;;;19.95;4.43;;;8.00;99.90;;;;;;5007189;28;20033;-72
2023/01/13 00:34:57;;;;;;;21.15;4.63;;;8.00;99.90;;;;;;5008165;28;20553;-71
2023/01/13 00:37:23;;;;;;;26.52;4.82;;;8.00;99.90;;;;;;5005871;28;20037;-71
2023/01/13 00:39:50;;;;;;;16.60;2.88;;;8.00;99.90;;;;;;5008354;28;20514;-71
2023/01/13 00:45:01;;;;;;;27.80;2.95;;;8.00;99.90;;;;;;4992093;28;20069;-71
2023/01/13 00:47:26;;;;;;;28.48;4.10;;;8.10;99.90;;;;;;4998822;28;20451;-72
2023/01/13 00:49:52;;;;;;;36.50;6.07;;;8.10;99.90;;;;;;4995966;28;20048;-72
2023/01/13 00:52:17;;;;;;;24.58;3.00;;;8.20;99.90;;;;;;4996207;28;20070;-71
2023/01/13 00:54:43;;;;;;;19.30;4.30;;;8.30;99.90;;;;;;4996182;28;20457;-71
2023/01/13 00:57:08;;;;;;;25.95;3.67;;;8.30;99.90;;;;;;4996959;28;20027;-71
2023/01/13 00:59:34;;;;;;;26.83;3.35;;;8.30;99.90;;;;;;4997609;28;20384;-71
2023/01/13 01:02:00;;;;;;;26.50;3.03;;;8.40;99.90;;;;;;4996769;28;20035;-71
2023/01/13 01:04:25;;;;;;;24.30;4.10;;;8.40;99.90;;;;;;4998343;28;20038;-72
2023/01/13 01:06:51;;;;;;;38.90;4.45;;;8.40;99.90;;;;;;4995813;28;20046;-72
2023/01/13 01:09:16;;;;;;;30.27;3.90;;;8.40;99.90;;;;;;4995741;28;20381;-71
2023/01/13 01:11:43;;;;;;;20.48;2.63;;;8.40;99.90;;;;;;4998106;28;20394;-70
2023/01/13 01:14:11;;;;;;;39.30;4.07;;;8.40;99.90;;;;;;4996039;28;20046;-71
2023/01/13 01:16:38;;;;;;;30.42;3.42;;;8.40;99.90;;;;;;4997252;28;20039;-72
2023/01/13 01:19:03;;;;;;;23.15;3.55;;;8.40;99.90;;;;;;5005929;28;20065;-72
2023/01/13 01:21:30;;;;;;;22.23;4.18;;;8.30;99.90;;;;;;5006305;28;20061;-72
2023/01/13 01:23:58;;;;;;;31.45;4.28;;;8.30;99.90;;;;;;5004895;28;20038;-71
2023/01/13 01:26:26;;;;;;;23.42;3.50;;;8.40;99.90;;;;;;5008580;28;20046;-72
2023/01/13 01:28:52;;;;;;;23.48;3.25;;;8.30;99.90;;;;;;5007474;28;20128;-72
2023/01/13 01:31:23;;;;;;;20.75;4.50;;;8.30;99.90;;;;;;5005326;28;20060;-72
2023/01/13 01:33:49;;;;;;;22.63;2.95;;;8.30;99.90;;;;;;5007210;28;20076;-71
2023/01/13 01:36:17;;;;;;;24.13;3.17;;;8.20;99.90;;;;;;5007275;28;20029;-69
2023/01/13 01:38:43;;;;;;;23.55;5.45;;;8.20;99.90;;;;;;5006856;28;20674;-73
2023/01/13 01:41:30;;;;;;;14.95;2.40;;;8.30;99.90;;;;;;5006355;28;20026;-71
2023/01/13 01:44:00;;;;;;;25.10;3.78;;;8.30;99.90;;;;;;5003731;28;20076;-71
2023/01/13 01:46:37;;;;;;;25.20;3.93;;;8.30;99.90;;;;;;5006484;28;20121;-71
2023/01/13 01:49:09;;;;;;;25.65;3.92;;;8.30;99.90;;;;;;5003003;28;20281;-72
2023/01/13 01:51:41;;;;;;;24.90;3.75;;;8.30;99.90;;;;;;5005590;28;20053;-72
2023/01/13 01:54:10;;;;;;;22.50;4.38;;;8.30;99.90;;;;;;5006308;28;20050;-72
2023/01/13 01:56:36;;;;;;;21.52;2.72;;;8.20;99.90;;;;;;5006693;28;20064;-71
2023/01/13 01:59:02;;;;;;;30.88;4.68;;;8.20;99.90;;;;;;5007526;28;20089;-71
2023/01/13 02:01:27;;;;;;;21.98;3.10;;;8.20;99.90;;;;;;5006938;28;20042;-72
2023/01/13 02:04:00;;;;;;;26.25;4.13;;;8.20;99.90;;;;;;5007545;28;20042;-73
2023/01/13 02:06:28;;;;;;;31.85;4.28;;;8.20;99.90;;;;;;5005462;28;20045;-72
2023/01/13 02:08:54;;;;;;;32.67;4.70;;;8.20;99.90;;;;;;5007802;28;20116;-71
2023/01/13 02:14:12;;;;;;;26.45;4.63;;;8.10;99.90;;;;;;5001314;28;20056;-71
2023/01/13 02:17:04;;;;;;;27.73;6.45;;;8.00;99.90;;;;;;5005108;28;20038;-72
2023/01/13 02:20:14;;;;;;;21.25;4.47;;;8.00;99.90;;;;;;5004567;28;20044;-71
2023/01/13 02:22:49;;;;;;;38.23;4.90;;;8.00;99.90;;;;;;5005355;28;20037;-71
2023/01/13 02:25:36;;;;;;;32.35;5.10;;;8.00;99.90;;;;;;5008517;28;20449;-71
2023/01/13 02:28:32;;;;;;;24.10;4.22;;;8.10;99.90;;;;;;5010334;28;20117;-71
2023/01/13 02:34:06;;;;;;;34.03;4.13;;;8.00;99.90;;;;;;5010426;28;20119;-71
2023/01/13 02:36:41;;;;;;;27.80;4.38;;;8.10;99.90;;;;;;5008360;28;20449;-71
2023/01/13 02:39:21;;;;;;;33.00;5.35;;;8.10;99.90;;;;;;5011306;28;20040;-73
2023/01/13 02:44:46;;;;;;;15.00;2.67;;;8.10;99.90;;;;;;5009452;28;20080;-72
2023/01/13 02:47:22;;;;;;;23.83;2.80;;;8.10;99.90;;;;;;5008659;28;20088;-72
2023/01/13 02:50:09;;;;;;;40.63;3.97;;;8.10;99.90;;;;;;5010087;28;20117;-71
2023/01/13 02:52:39;;;;;;;23.77;4.20;;;8.10;99.90;;;;;;5009168;28;20088;-71
2023/01/13 02:55:33;;;;;;;34.85;4.10;;;8.10;99.90;;;;;;5008712;28;20037;-73
2023/01/13 02:58:03;;;;;;;32.45;4.20;;;8.10;99.90;;;;;;5003139;28;20160;-71
2023/01/13 03:00:29;;;;;;;24.92;4.05;;;8.10;99.90;;;;;;5009400;28;20038;-71
2023/01/13 03:02:55;;;;;;;29.73;3.67;;;8.10;99.90;;;;;;5008660;28;20387;-72
2023/01/13 03:05:21;;;;;;;23.40;3.20;;;8.10;99.90;;;;;;5009268;28;20056;-71
2023/01/13 03:08:20;;;;;;;35.47;4.47;;;8.10;99.90;;;;;;5010076;28;20034;-70
2023/01/13 03:10:51;;;;;;;19.83;3.25;;;8.10;99.90;;;;;;4995127;28;20049;-72
2023/01/13 03:13:31;;;;;;;20.98;2.50;;;8.00;99.90;;;;;;4996210;28;20091;-72
2023/01/13 03:16:02;;;;;;;32.42;4.55;;;8.00;99.90;;;;;;5007008;28;20515;-71
2023/01/13 03:18:50;;;;;;;18.13;2.80;;;8.00;99.90;;;;;;5010301;28;20038;-72
2023/01/13 03:21:48;;;;;;;23.33;2.92;;;8.00;99.90;;;;;;5008241;28;20104;-72
2023/01/13 03:24:39;;;;;;;16.70;3.40;;;7.90;99.90;;;;;;5008425;28;20045;-72
2023/01/13 03:27:06;;;;;;;32.67;5.28;;;8.00;99.90;;;;;;5008311;28;20096;-71
2023/01/13 03:29:41;;;;;;;22.23;2.38;;;7.90;99.90;;;;;;5008540;28;20034;-71
2023/01/13 03:32:16;;;;;;;18.48;3.65;;;7.90;99.90;;;;;;5008158;28;20487;-72
2023/01/13 03:35:00;;;;;;;19.55;3.20;;;8.00;99.90;;;;;;5009160;28;20065;-74
2023/01/13 03:37:37;;;;;;;15.95;2.63;;;8.10;99.90;;;;;;5005770;28;20507;-71
2023/01/13 03:40:15;;;;;;;21.55;2.65;;;8.10;99.90;;;;;;5008262;28;20041;-71
2023/01/13 03:44:20;;;;;;;21.45;3.50;;;8.20;99.90;;;;;;5001566;28;20045;-71
2023/01/13 03:45:33;;;;;;;24.35;3.90;;;8.20;99.90;;;;;;5006912;28;20120;-72
2023/01/13 03:48:03;;;;;;;28.77;3.95;;;8.20;99.90;;;;;;5010652;28;20052;-71
2023/01/13 03:50:37;;;;;;;8.60;1.67;;;8.30;99.90;;;;;;5011465;28;20045;-71
2023/01/13 03:53:12;;;;;;;23.00;3.03;;;8.30;99.90;;;;;;5005036;28;20030;-71
2023/01/13 03:55:43;;;;;;;28.45;2.83;;;8.30;99.90;;;;;;5006833;28;20046;-71
2023/01/13 03:58:21;;;;;;;12.98;2.70;;;8.30;99.90;;;;;;5012163;28;20511;-71
2023/01/13 04:00:55;;;;;;;15.38;2.67;;;8.20;99.90;;;;;;5004498;28;20056;-71
2023/01/13 04:03:30;;;;;;;8.38;2.70;;;8.20;99.90;;;;;;5005765;28;20072;-72
2023/01/13 04:06:05;;;;;;;16.20;3.47;;;8.20;99.90;;;;;;5026171;28;20387;-71
2023/01/13 04:08:33;;;;;;;9.90;1.65;;;8.10;99.90;;;;;;5008278;28;20041;-72
2023/01/13 04:11:12;;;;;;;13.25;1.92;;;8.00;99.90;;;;;;5007570;28;20402;-72
2023/01/13 04:13:40;;;;;;;16.40;2.42;;;8.10;99.90;;;;;;5010739;28;20033;-71
2023/01/13 04:16:07;;;;;;;12.63;1.40;;;8.00;99.90;;;;;;5009032;28;20054;-71
2023/01/13 04:18:37;;;;;;;12.63;2.75;;;7.90;99.90;;;;;;5008317;28;20045;-70
2023/01/13 04:21:04;;;;;;;9.57;1.27;;;7.90;99.90;;;;;;5012352;28;20378;-71
2023/01/13 04:23:29;;;;;;;10.43;2.58;;;7.90;99.90;;;;;;5007528;28;20064;-72
2023/01/13 04:25:55;;;;;;;10.45;1.20;;;7.90;99.90;;;;;;5009341;28;20498;-72
2023/01/13 04:28:21;;;;;;;16.38;2.05;;;7.80;99.90;;;;;;5007980;28;20041;-70
2023/01/13 04:30:48;;;;;;;14.38;1.42;;;7.90;99.90;;;;;;5008825;28;20053;-71
2023/01/13 04:33:15;;;;;;;17.48;1.30;;;7.90;99.90;;;;;;5006544;28;20022;-72
2023/01/13 04:35:42;;;;;;;17.20;2.53;;;7.80;99.90;;;;;;5008908;28;20026;-71
2023/01/13 04:38:13;;;;;;;7.20;1.00;;;7.80;99.90;;;;;;5011350;28;20112;-71
2023/01/13 04:40:40;;;;;;;12.20;1.75;;;7.80;99.90;;;;;;5007663;28;20034;-72
2023/01/13 04:43:05;;;;;;;19.70;1.60;;;7.80;99.90;;;;;;5008099;28;20042;-69
2023/01/13 04:45:31;;;;;;;11.63;2.20;;;7.70;99.90;;;;;;5007726;28;20080;-72
2023/01/13 04:47:57;;;;;;;9.82;1.15;;;7.70;99.90;;;;;;5007616;28;20038;-71
2023/01/13 04:50:23;;;;;;;10.75;1.40;;;7.70;99.90;;;;;;5007459;28;20050;-71
2023/01/13 04:52:50;;;;;;;11.32;1.45;;;7.80;99.90;;;;;;4997035;28;20046;-71
2023/01/13 04:55:17;;;;;;;12.80;1.30;;;7.80;99.90;;;;;;4999249;28;20049;-71
2023/01/13 04:57:43;;;;;;;7.95;1.27;;;7.90;99.90;;;;;;4997170;28;20065;-71
2023/01/13 05:00:11;;;;;;;4.43;0.90;;;7.90;99.90;;;;;;4999746;28;20069;-71
2023/01/13 05:02:36;;;;;;;6.05;0.85;;;7.90;99.90;;;;;;4995540;28;20040;-71
2023/01/13 05:05:03;;;;;;;11.88;1.73;;;7.80;99.90;;;;;;4997546;28;20117;-71
2023/01/13 05:07:28;;;;;;;11.95;1.60;;;7.80;99.90;;;;;;4998038;28;20060;-72
2023/01/13 05:09:54;;;;;;;11.13;1.10;;;7.80;99.90;;;;;;4995483;28;20570;-71
2023/01/13 05:17:49;;;;;;;14.05;1.90;;;7.90;99.90;;;;;;5004052;28;20129;-72
2023/01/13 05:20:15;;;;;;;10.57;1.38;;;8.00;99.90;;;;;;5006642;28;20092;-71
2023/01/13 05:25:26;;;;;;;10.15;1.38;;;8.00;99.90;;;;;;5005428;28;20120;-71
2023/01/13 05:27:57;;;;;;;9.70;1.00;;;8.00;99.90;;;;;;5010786;28;20034;-71
2023/01/13 05:30:25;;;;;;;10.57;1.85;;;7.80;99.90;;;;;;5005119;28;20114;-70
2023/01/13 05:32:50;;;;;;;13.73;2.42;;;7.80;99.90;;;;;;5006111;28;20030;-72
2023/01/13 05:35:16;;;;;;;12.77;1.10;;;7.70;99.90;;;;;;5007255;28;20044;-72
2023/01/13 05:37:43;;;;;;;10.27;1.92;;;7.70;99.90;;;;;;4999626;28;20053;-72
2023/01/13 05:43:18;;;;;;;9.32;1.42;;;7.70;99.90;;;;;;5004916;28;20052;-71
2023/01/13 05:45:45;;;;;;;16.35;2.50;;;7.70;99.90;;;;;;5018675;28;20034;-73
2023/01/13 05:48:11;;;;;;;11.35;1.98;;;7.70;99.90;;;;;;5003716;28;20053;-72
2023/01/13 05:50:36;;;;;;;10.32;1.85;;;7.70;99.90;;;;;;5006975;28;20495;-71
2023/01/13 05:53:03;;;;;;;12.75;1.75;;;7.70;99.90;;;;;;5006077;28;20044;-70
2023/01/13 05:55:28;;;;;;;11.52;2.53;;;7.70;99.90;;;;;;5005076;28;20049;-71
2023/01/13 05:57:54;;;;;;;9.98;1.92;;;7.70;99.90;;;;;;5011067;28;20071;-71
2023/01/13 06:00:20;;;;;;;20.38;2.88;;;7.70;99.90;;;;;;5011764;28;20046;-73
2023/01/13 06:02:45;;;;;;;14.43;1.65;;;7.70;99.90;;;;;;5011683;28;20034;-73
2023/01/13 06:05:11;;;;;;;11.02;1.58;;;7.70;99.90;;;;;;5011898;28;20049;-71
2023/01/13 06:07:36;;;;;;;12.90;3.53;;;7.70;99.90;;;;;;5010189;28;20041;-72
2023/01/13 06:10:02;;;;;;;12.88;2.10;;;7.70;99.90;;;;;;5011235;28;20125;-73
2023/01/13 06:12:28;;;;;;;9.48;2.13;;;7.70;99.90;;;;;;5011571;28;20069;-73
2023/01/13 06:14:53;;;;;;;9.73;1.63;;;7.70;99.90;;;;;;5010633;28;20065;-72
2023/01/13 06:17:19;;;;;;;9.73;2.33;;;7.80;99.90;;;;;;5010500;28;20034;-72
2023/01/13 06:19:45;;;;;;;16.55;2.03;;;7.80;99.90;;;;;;5009775;28;20026;-71
2023/01/13 06:22:23;;;;;;;15.90;1.88;;;7.90;99.90;;;;;;5009397;28;20052;-72
2023/01/13 06:24:49;;;;;;;9.52;2.03;;;8.00;99.90;;;;;;5007897;28;20062;-71
2023/01/13 06:27:16;;;;;;;15.23;2.20;;;8.00;99.90;;;;;;5014228;28;20034;-71
2023/01/13 06:29:42;;;;;;;14.05;1.92;;;8.10;99.90;;;;;;5010994;28;20040;-72
2023/01/13 06:32:17;;;;;;;8.40;1.58;;;8.10;99.90;;;;;;5010990;28;20034;-71
2023/01/13 06:34:47;;;;;;;12.65;1.90;;;8.10;99.90;;;;;;5006930;28;20037;-73
2023/01/13 06:37:16;;;;;;;23.63;3.08;;;8.10;99.90;;;;;;5009246;28;20033;-71
2023/01/13 06:39:41;;;;;;;20.58;2.25;;;8.10;99.90;;;;;;5009777;28;20037;-71
2023/01/13 06:44:52;;;;;;;19.27;2.55;;;8.20;99.90;;;;;;5003713;28;20056;-71
2023/01/13 06:47:21;;;;;;;17.60;1.90;;;8.20;99.90;;;;;;5008227;28;20133;-71
2023/01/13 06:49:46;;;;;;;13.85;1.55;;;8.20;99.90;;;;;;5010392;28;20121;-73
2023/01/13 06:52:12;;;;;;;12.10;2.58;;;8.20;99.90;;;;;;5010162;28;20066;-72
2023/01/13 06:54:37;;;;;;;12.55;2.33;;;8.20;99.90;;;;;;5009488;28;20112;-72
2023/01/13 06:57:03;;;;;;;11.10;1.45;;;8.20;99.90;;;;;;5008789;28;20040;-71
2023/01/13 06:59:29;;;;;;;17.63;1.73;;;8.30;99.90;;;;;;5007564;28;20084;-71
2023/01/13 07:01:54;;;;;;;17.38;2.00;;;8.30;99.90;;;;;;5008686;28;20022;-71
2023/01/13 07:04:20;;;;;;;20.15;3.72;;;8.30;99.90;;;;;;4997285;28;20038;-71
2023/01/13 07:06:45;;;;;;;17.30;1.95;;;8.30;99.90;;;;;;5001267;28;20026;-72
2023/01/13 07:09:11;;;;;;;18.77;4.03;;;8.30;99.90;;;;;;4998962;28;20049;-72
2023/01/13 07:11:37;;;;;;;21.35;2.95;;;8.30;99.90;;;;;;4999256;28;20053;-71
2023/01/13 07:16:47;;;;;;;14.48;2.05;;;8.30;99.90;;;;;;5000596;28;20037;-71
2023/01/13 07:19:12;;;;;;;27.83;3.13;;;8.30;99.90;;;;;;5006102;28;20027;-71
2023/01/13 07:21:38;;;;;;;27.70;2.65;;;8.40;99.90;;;;;;5008088;28;20045;-71
2023/01/13 07:24:04;;;;;;;7.88;1.70;;;8.30;99.90;;;;;;5009253;28;20034;-71
2023/01/13 07:26:29;;;;;;;16.40;1.40;;;8.30;99.90;;;;;;5011733;28;20472;-71
2023/01/13 07:28:56;;;;;;;18.10;2.05;;;8.30;99.90;;;;;;5008015;28;20037;-71
2023/01/13 07:31:22;;;;;;;10.23;2.13;;;8.30;99.90;;;;;;5009101;28;20565;-71
2023/01/13 07:33:47;;;;;;;17.00;2.17;;;8.30;99.90;;;;;;5008243;28;20041;-71
2023/01/13 07:36:13;;;;;;;15.10;1.67;;;8.40;99.90;;;;;;5008804;28;20030;-70
2023/01/13 07:38:39;;;;;;;13.98;2.30;;;8.40;99.90;;;;;;5007379;28;20037;-73
2023/01/13 07:43:51;;;;;;;10.13;1.75;;;8.40;99.90;;;;;;5005524;28;20037;-73
2023/01/13 07:46:17;;;;;;;19.63;2.90;;;8.50;99.90;;;;;;5006689;28;20901;-72
2023/01/13 07:48:42;;;;;;;12.70;1.40;;;8.40;99.90;;;;;;5009195;28;20165;-71
2023/01/13 07:51:09;;;;;;;22.10;1.88;;;8.40;99.90;;;;;;5008619;28;20117;-71
2023/01/13 07:53:35;;;;;;;14.25;1.75;;;8.40;99.90;;;;;;5007581;28;20034;-71
2023/01/13 07:56:03;;;;;;;15.55;1.67;;;8.50;99.90;;;;;;5008945;28;20030;-73
2023/01/13 07:58:29;;;;;;;11.93;2.00;;;8.50;99.90;;;;;;5008137;28;20034;-71
2023/01/13 08:00:55;;;;;;;16.60;2.00;;;8.50;99.90;;;;;;5009043;28;20449;-71
2023/01/13 08:03:21;;;;;;;18.17;2.42;;;8.50;99.90;;;;;;5006705;28;20038;-71
2023/01/13 08:05:47;;;;;;;17.58;2.95;;;8.50;99.90;;;;;;5008785;28;20029;-71
2023/01/13 08:08:13;;;;;;;14.55;1.63;;;8.50;99.90;;;;;;5008156;28;20478;-71
2023/01/13 08:10:39;;;;;;;12.70;2.25;;;8.60;99.90;;;;;;5004937;28;20037;-71
2023/01/13 08:13:16;;;;;;;12.15;1.98;;;8.60;99.90;;;;;;5006852;28;20026;-71
2023/01/13 08:15:42;;;;;;;11.63;1.73;;;8.60;99.90;;;;;;4987350;28;20042;-70
2023/01/13 08:18:07;;;;;;;11.23;1.67;;;8.60;99.90;;;;;;4988808;28;20049;-71
2023/01/13 08:20:33;;;;;;;17.45;1.90;;;8.60;99.90;;;;;;4997166;28;20050;-71
2023/01/13 08:23:00;;;;;;;9.98;1.92;;;8.70;99.90;;;;;;4997936;28;20034;-71
2023/01/13 08:25:27;;;;;;;8.73;2.05;;;8.70;99.90;;;;;;5001408;28;20038;-71
2023/01/13 08:27:53;;;;;;;8.88;3.20;;;8.80;99.90;;;;;;5002989;28;20033;-71
2023/01/13 08:30:19;;;;;;;23.23;2.80;;;8.80;99.90;;;;;;4996409;28;20049;-70
2023/01/13 08:32:49;;;;;;;12.35;2.55;;;8.70;99.90;;;;;;5008697;28;20042;-71
2023/01/13 08:35:16;;;;;;;13.67;2.10;;;8.70;99.90;;;;;;5008733;28;20026;-72
2023/01/13 08:37:42;;;;;;;16.20;1.92;;;8.60;99.90;;;;;;5009173;28;20296;-71
2023/01/13 08:40:08;;;;;;;17.75;1.80;;;8.50;99.90;;;;;;5008197;28;20030;-72
2023/01/13 08:42:34;;;;;;;21.65;2.85;;;8.40;99.90;;;;;;5008902;28;20117;-71
2023/01/13 08:45:00;;;;;;;10.63;1.88;;;8.40;99.90;;;;;;5009566;28;20117;-71
2023/01/13 08:47:28;;;;;;;17.65;2.05;;;8.30;99.90;;;;;;5007716;28;20128;-71
2023/01/13 08:49:55;;;;;;;17.92;2.28;;;8.20;99.90;;;;;;5021857;28;20092;-72
2023/01/13 08:52:21;;;;;;;14.60;2.92;;;8.20;99.90;;;;;;5006257;28;20042;-71
2023/01/13 08:54:46;;;;;;;21.15;3.50;;;8.10;99.90;;;;;;5007249;28;20033;-71
2023/01/13 08:57:13;;;;;;;19.50;2.22;;;8.10;99.90;;;;;;5005380;28;20050;-71
2023/01/13 08:59:39;;;;;;;14.82;2.38;;;8.10;99.90;;;;;;5006612;28;20032;-71
2023/01/13 09:02:17;;;;;;;22.05;3.33;;;8.10;99.90;;;;;;5007361;28;20113;-71
2023/01/13 09:04:44;;;;;;;10.68;2.40;;;8.00;99.90;;;;;;5002086;28;20038;-71
2023/01/13 09:07:10;;;;;;;14.52;1.60;;;8.00;99.90;;;;;;5004747;28;20041;-72
2023/01/13 09:09:36;;;;;;;13.13;2.67;;;8.00;99.90;;;;;;4992616;28;20125;-71
2023/01/13 09:14:47;;;;;;;15.48;2.05;;;7.90;99.90;;;;;;5003953;28;20033;-72
2023/01/13 09:17:13;;;;;;;19.88;2.03;;;7.90;99.90;;;;;;5005560;28;20398;-70
2023/01/13 09:19:39;;;;;;;13.00;2.50;;;7.90;99.90;;;;;;5004677;28;20034;-71
2023/01/13 09:22:05;;;;;;;18.95;2.50;;;7.90;99.90;;;;;;5007323;28;20092;-71
2023/01/13 09:24:31;;;;;;;23.05;2.22;;;7.90;99.90;;;;;;5006719;28;20073;-71
2023/01/13 09:26:56;;;;;;;19.88;3.25;;;7.90;99.90;;;;;;5010635;28;20486;-71
2023/01/13 09:29:22;;;;;;;19.90;2.08;;;7.90;99.90;;;;;;5005742;28;20046;-72
2023/01/13 09:31:48;;;;;;;16.70;2.47;;;7.90;99.90;;;;;;5007293;28;20022;-73
2023/01/13 09:37:02;;;;;;;15.18;1.83;;;8.00;99.90;;;;;;5007349;28;20083;-72
2023/01/13 09:39:28;;;;;;;36.90;2.58;;;8.10;99.90;;;;;;5009932;28;20134;-72
2023/01/13 09:45:06;;;;;;;13.23;1.90;;;8.20;99.90;;;;;;5008090;28;20184;-72
2023/01/13 09:47:39;;;;;;;12.20;1.67;;;8.30;99.90;;;;;;5006170;28;20041;-71
2023/01/13 09:50:29;;;;;;;15.75;3.28;;;8.30;99.90;;;;;;5009218;28;20677;-71
2023/01/13 09:52:56;;;;;;;16.60;1.75;;;8.30;99.90;;;;;;5009553;28;20034;-71
2023/01/13 09:55:33;;;;;;;20.33;3.40;;;8.30;99.90;;;;;;5013076;28;20621;-71
2023/01/13 09:58:01;;;;;;;26.58;3.03;;;8.30;99.90;;;;;;5006611;28;20034;-72
2023/01/13 10:00:35;;;;;;;18.95;1.95;;;8.30;99.90;;;;;;5008479;28;20030;-72
2023/01/13 10:03:28;;;;;;;11.93;1.50;;;8.40;99.90;;;;;;5010226;28;20583;-71
2023/01/13 10:06:16;;;;;;;21.38;3.42;;;8.40;99.90;;;;;;5006536;28;20038;-72
2023/01/13 10:08:44;;;;;;;11.10;2.05;;;8.50;99.90;;;;;;4999770;28;20038;-71
2023/01/13 10:14:19;;;;;;;26.90;2.88;;;8.60;99.90;;;;;;5006543;28;20048;-71
2023/01/13 10:17:10;;;;;;;18.10;2.45;;;8.70;99.90;;;;;;4997298;28;20038;-71
2023/01/13 10:20:08;;;;;;;12.25;1.92;;;8.70;99.90;;;;;;5007833;28;21452;-73
2023/01/13 10:22:43;;;;;;;19.42;3.20;;;8.80;99.90;;;;;;4997117;28;20046;-74
2023/01/13 10:25:23;;;;;;;15.88;1.58;;;8.70;99.90;;;;;;5007640;28;20057;-74
2023/01/13 10:27:52;;;;;;;13.43;2.15;;;8.70;99.90;;;;;;5002903;28;20449;-73
2023/01/13 10:30:39;;;;;;;23.45;2.95;;;8.60;99.90;;;;;;5007711;28;20039;-76
2023/01/13 10:33:13;;;;;;;17.50;2.55;;;8.60;99.90;;;;;;5002233;28;20536;-74
2023/01/13 10:35:54;;;;;;;11.07;2.25;;;8.70;99.90;;;;;;5007580;28;20036;-73
2023/01/13 10:38:41;;;;;;;20.15;2.65;;;8.80;99.90;;;;;;5019706;28;20104;-75
2023/01/13 10:41:27;;;;;;;18.73;3.33;;;8.80;99.90;;;;;;5005093;28;20568;-73
2023/01/13 10:44:03;;;;;;;25.30;2.55;;;8.80;99.90;;;;;;5007363;28;20037;-72
2023/01/13 10:46:33;;;;;;;13.80;3.35;;;8.80;99.90;;;;;;5003247;28;20065;-73
2023/01/13 10:49:02;;;;;;;17.20;1.98;;;8.90;99.90;;;;;;5009805;28;20109;-71
2023/01/13 10:51:27;;;;;;;19.38;1.98;;;8.90;99.90;;;;;;5004517;28;20510;-73
2023/01/13 10:54:10;;;;;;;10.63;2.47;;;8.90;99.90;;;;;;5000688;28;20045;-72
2023/01/13 10:56:36;;;;;;;10.57;1.80;;;8.90;99.90;;;;;;5011618;28;20031;-72
2023/01/13 10:59:08;;;;;;;5.55;1.40;;;8.90;99.90;;;;;;4995534;28;20037;-72
2023/01/13 11:01:33;;;;;;;9.45;1.42;;;8.90;99.90;;;;;;5003020;28;20045;-74
2023/01/13 11:03:59;;;;;;;15.07;1.65;;;8.90;99.90;;;;;;5004651;28;20041;-74
2023/01/13 11:06:29;;;;;;;10.82;1.65;;;8.90;99.90;;;;;;5006614;28;20512;-72
2023/01/13 11:08:57;;;;;;;8.73;1.37;;;9.00;99.90;;;;;;5009394;28;20038;-72
2023/01/13 11:11:42;;;;;;;8.65;1.30;;;9.00;99.90;;;;;;4987635;28;20042;-73
2023/01/13 11:14:48;;;;;;;12.10;2.05;;;9.00;99.90;;;;;;5006892;28;20113;-74
2023/01/13 11:17:37;;;;;;;9.00;1.20;;;9.00;99.90;;;;;;5004812;28;20034;-71
2023/01/13 11:20:20;;;;;;;10.07;1.20;;;9.10;99.90;;;;;;5002596;28;20041;-72
2023/01/13 11:22:54;;;;;;;12.80;1.55;;;9.10;99.90;;;;;;5008479;28;20911;-72
2023/01/13 11:25:31;;;;;;;16.20;2.58;;;9.20;99.90;;;;;;5006862;28;20112;-70
2023/01/13 11:28:03;;;;;;;14.15;2.15;;;9.30;99.90;;;;;;5021361;28;20037;-72
2023/01/13 11:30:33;;;;;;;8.80;1.48;;;9.30;99.90;;;;;;5007384;28;20057;-73
2023/01/13 11:33:02;;;;;;;9.55;1.27;;;9.30;99.90;;;;;;5010056;28;20148;-72
2023/01/13 11:35:30;;;;;;;8.82;1.48;;;9.40;99.90;;;;;;5008920;28;20059;-73
2023/01/13 11:38:05;;;;;;;11.90;1.50;;;9.30;99.90;;;;;;5007761;28;20125;-71
2023/01/13 11:40:45;;;;;;;6.40;0.98;;;9.30;99.90;;;;;;5006987;28;20046;-74
2023/01/13 11:43:40;;;;;;;24.92;1.65;;;9.30;99.90;;;;;;5007980;28;20041;-73
2023/01/13 11:46:09;;;;;;;12.43;1.63;;;9.30;99.90;;;;;;4996872;28;20091;-70
2023/01/13 11:48:40;;;;;;;5.90;1.65;;;9.20;99.90;;;;;;5005571;28;20041;-72
2023/01/13 11:51:24;;;;;;;;;;;9.30;99.90;;;;;;5000937;28;20514;-71
2023/01/13 11:53:59;;;;;;;16.52;2.30;;;9.30;99.90;;;;;;4998180;28;19917;-70
2023/01/13 11:57:02;;;;;;;12.20;1.10;;;9.50;99.90;;;;;;5002956;28;20042;-73
2023/01/13 12:00:06;;;;;;;9.15;1.42;;;9.50;99.90;;;;;;5003413;28;20041;-74
2023/01/13 12:02:42;;;;;;;7.88;1.45;;;9.50;99.90;;;;;;5006077;28;20471;-73
2023/01/13 12:05:16;;;;;;;8.70;1.45;;;9.60;99.90;;;;;;5007414;28;20410;-74
2023/01/13 12:08:09;;;;;;;12.30;3.78;;;9.60;99.90;;;;;;5006548;28;20729;-74
2023/01/13 12:10:59;;;;;;;8.13;1.98;;;9.70;99.90;;;;;;5006191;28;20388;-75
2023/01/13 12:13:31;;;;;;;9.63;1.73;;;9.60;99.90;;;;;;5012841;28;20039;-73
2023/01/13 12:16:15;;;;;;;12.20;1.23;;;9.70;99.90;;;;;;5003253;28;20514;-73
2023/01/13 12:18:50;;;;;;;11.77;2.78;;;9.70;99.90;;;;;;5008376;28;20072;-74
2023/01/13 12:21:24;;;;;;;7.47;2.10;;;9.80;99.90;;;;;;5004548;28;20102;-73
2023/01/13 12:24:19;;;;;;;18.90;3.17;;;9.90;99.90;;;;;;5001778;28;20038;-71
2023/01/13 12:26:58;;;;;;;8.35;1.70;;;9.90;99.90;;;;;;5022448;28;20038;-74
2023/01/13 12:29:33;;;;;;;10.23;1.40;;;9.90;99.90;;;;;;5000311;28;20149;-73
2023/01/13 12:32:02;;;;;;;8.93;1.00;;;9.90;99.90;;;;;;5001841;28;20439;-73
2023/01/13 12:34:34;;;;;;;7.88;1.02;;;9.90;99.90;;;;;;5002296;28;20130;-72
2023/01/13 12:37:14;;;;;;;11.90;1.10;;;9.90;99.90;;;;;;5000395;28;20533;-74
2023/01/13 12:40:02;;;;;;;16.67;3.38;;;9.90;99.90;;;;;;5001182;28;20030;-74
2023/01/13 12:45:40;;;;;;;12.40;1.48;;;9.90;99.90;;;;;;4999937;28;20418;-74
2023/01/13 12:48:05;;;;;;;6.25;0.93;;;9.90;99.90;;;;;;5007909;28;20039;-71
2023/01/13 12:50:31;;;;;;;5.65;1.90;;;9.80;99.90;;;;;;4996663;28;20050;-72
2023/01/13 12:53:20;;;;;;;4.68;1.27;;;9.90;99.90;;;;;;5008545;28;20044;-73
2023/01/13 12:55:52;;;;;;;7.63;1.40;;;9.90;99.90;;;;;;5002050;28;20478;-74
2023/01/13 12:58:26;;;;;;;14.57;1.35;;;9.90;99.90;;;;;;5018053;28;20037;-75
2023/01/13 13:01:09;;;;;;;14.45;1.92;;;9.80;99.90;;;;;;5008160;28;20125;-72
2023/01/13 13:03:35;;;;;;;5.30;0.77;;;9.90;99.90;;;;;;5006749;28;20441;-73
2023/01/13 13:06:24;;;;;;;8.15;1.45;;;9.90;99.90;;;;;;5008110;28;20080;-76
2023/01/13 13:09:03;;;;;;;8.25;1.30;;;9.90;99.90;;;;;;5003985;28;20030;-72
2023/01/13 13:14:38;;;;;;;11.95;1.02;;;9.90;99.90;;;;;;5005325;28;20040;-72
2023/01/13 13:17:28;;;;;;;11.15;1.50;;;9.90;99.90;;;;;;5010398;28;20494;-75
2023/01/13 13:19:58;;;;;;;4.68;0.82;;;9.90;99.90;;;;;;4999338;28;20076;-74
2023/01/13 13:22:27;;;;;;;9.70;1.38;;;9.90;99.90;;;;;;5008193;28;20041;-72
2023/01/13 13:24:58;;;;;;;4.28;1.10;;;9.90;99.90;;;;;;5008704;28;20042;-74
2023/01/13 13:27:43;;;;;;;10.13;1.33;;;9.90;99.90;;;;;;5008973;28;20064;-74
2023/01/13 13:30:31;;;;;;;8.55;1.60;;;9.90;99.90;;;;;;5008663;28;20034;-73
2023/01/13 13:33:27;;;;;;;11.18;1.58;;;10.00;99.90;;;;;;5021748;28;20437;-75
2023/01/13 13:36:06;;;;;;;7.30;1.15;;;10.00;99.90;;;;;;4999868;28;20123;-76
2023/01/13 13:47:10;;;;;;;9.70;2.08;;;9.90;99.90;;;;;;5003499;28;20049;-73
2023/01/13 13:49:43;;;;;;;10.05;1.20;;;9.90;99.90;;;;;;5006455;28;20042;-74
2023/01/13 13:52:14;;;;;;;10.00;1.55;;;9.90;99.90;;;;;;5003871;28;20053;-74
2023/01/13 13:54:43;;;;;;;6.50;1.50;;;10.00;99.90;;;;;;5003545;28;20034;-74
2023/01/13 13:57:20;;;;;;;8.50;1.85;;;9.90;99.90;;;;;;5007072;28;20041;-73
2023/01/13 13:59:51;;;;;;;6.28;1.23;;;9.90;99.90;;;;;;4994843;28;20374;-73
2023/01/13 14:02:33;;;;;;;7.38;1.20;;;10.00;99.90;;;;;;5006991;28;20038;-75
2023/01/13 14:05:14;;;;;;;7.00;1.70;;;9.90;99.90;;;;;;5007867;28;20034;-72
2023/01/13 14:07:48;;;;;;;4.93;0.95;;;9.90;99.90;;;;;;5006931;28;20037;-73